Flight Briefing for CMB841

Departure Arrival
Norfolk Naval Station (Chambers Field) (KNGU)
Click to view FAA NOTAMS
Naval Station Rota (LERT)
Click to view FAA NOTAMS
Departure Time Arrival Time
N/A N/A
Aircraft Distance
B757-200SF 3288nm
Departure METAR Arrival METAR
KNGU 221159Z 27013G20KT 10SM FEW065 09/03 A2966 RMK AO2 SLP045 70006 T00890033 10094 20083 53013 LERT 221200Z 09009KT 020V170 9999 FEW025 SCT050 19/07 Q1023 NOSIG
Suggested Route
ATLIC AR9 ZIBUT N3960 4055N N4050 N4040 4035N FRS LENSI T25 GUNTI UZ21 BUSEN A44 ESP A5 VFA W1 PIREN


View recent IFR Routes data
Notes
USTRANSCOM CONTRACT FLIGHT | PAYLOAD RESTRICTED | ETOPS

Charts and Procedures

Charts for KNGU
No chart available
Charts for LERT
No chart available

Windy.com Weather Map